createdAt,value
2018-07-11T05:05:35.402Z,17.58
2018-07-11T05:10:48.723Z,17.27
2018-07-11T05:15:52.052Z,16.95
2018-07-11T05:20:55.554Z,17.01
2018-07-11T05:25:58.883Z,16.99
2018-07-11T05:31:02.214Z,17.11
2018-07-11T05:36:05.562Z,17.10
2018-07-11T05:41:08.897Z,17.18
2018-07-11T05:46:12.240Z,17.45
2018-07-11T05:51:15.594Z,17.65
2018-07-11T05:56:19.751Z,17.64
2018-07-11T06:01:23.083Z,17.74
2018-07-11T06:06:26.414Z,17.76
2018-07-11T06:11:29.743Z,17.55
2018-07-11T06:16:33.072Z,17.38
2018-07-11T06:21:37.162Z,16.83
2018-07-11T06:26:40.491Z,16.39
2018-07-11T06:31:43.822Z,16.16
2018-07-11T06:36:47.915Z,16.25
2018-07-11T06:41:51.243Z,16.37
2018-07-11T06:47:06.801Z,16.63
2018-07-11T06:52:10.190Z,16.55
2018-07-11T06:57:14.439Z,16.47
2018-07-11T07:02:18.770Z,16.48
2018-07-11T07:07:23.207Z,16.60
2018-07-11T07:12:26.561Z,16.43
2018-07-11T07:17:29.914Z,16.70
2018-07-11T07:22:33.320Z,16.69
2018-07-11T07:27:36.692Z,16.76
2018-07-11T07:32:40.027Z,17.05
2018-07-11T07:37:43.355Z,16.95
2018-07-11T07:42:46.710Z,16.91
2018-07-11T07:47:50.048Z,17.24
2018-07-11T07:52:53.400Z,17.21
2018-07-11T07:57:57.519Z,16.97
2018-07-11T08:03:00.851Z,16.98
2018-07-11T08:08:04.959Z,17.36
2018-07-11T08:13:08.293Z,17.45
2018-07-11T08:18:12.386Z,17.84
2018-07-11T08:28:52.682Z,18.07
2018-07-11T08:33:56.022Z,17.84
2018-07-11T08:38:59.350Z,18.16
2018-07-11T08:44:02.828Z,18.40
2018-07-11T08:49:06.311Z,18.42
2018-07-11T08:54:09.832Z,18.52
2018-07-11T08:59:39.310Z,18.36
2018-07-11T09:04:43.732Z,18.46
2018-07-11T09:10:02.025Z,18.58
2018-07-11T09:15:05.715Z,18.67
2018-07-11T09:20:09.365Z,18.64
2018-07-11T09:25:12.832Z,18.80
2018-07-11T09:30:19.007Z,19.04
2018-07-11T09:35:22.746Z,19.13
2018-07-11T09:40:32.162Z,19.27
2018-07-11T09:45:39.456Z,19.33
2018-07-11T09:50:46.102Z,19.24
2018-07-11T09:55:49.444Z,19.17
2018-07-11T10:00:53.547Z,19.24
2018-07-11T10:05:59.189Z,19.26
2018-07-11T10:11:04.293Z,19.20
2018-07-11T10:16:10.622Z,19.32
2018-07-11T10:21:13.945Z,19.44
2018-07-11T10:26:17.277Z,19.72
2018-07-11T10:31:20.624Z,19.50
2018-07-11T10:36:23.982Z,19.77
2018-07-11T10:41:27.309Z,19.90
2018-07-11T10:46:30.643Z,19.98
2018-07-11T10:51:33.971Z,20.01
2018-07-11T10:56:38.062Z,19.62
2018-07-11T11:01:41.395Z,19.38
2018-07-11T11:06:44.741Z,19.06
2018-07-11T11:11:48.078Z,19.13
2018-07-11T11:16:51.415Z,19.28
2018-07-11T11:21:54.795Z,19.23
2018-07-11T11:26:58.127Z,19.43
2018-07-11T11:32:01.626Z,19.84
2018-07-11T11:37:04.811Z,19.72
2018-07-11T11:42:09.261Z,19.93
2018-07-11T11:47:12.255Z,19.98
2018-07-11T11:52:16.357Z,20.40
2018-07-11T11:57:19.698Z,20.18
2018-07-11T12:02:23.790Z,20.05
2018-07-11T12:07:27.125Z,20.05
2018-07-11T12:12:31.220Z,20.13
2018-07-11T12:17:34.547Z,20.44
2018-07-11T12:22:37.885Z,19.94
2018-07-11T12:27:42.035Z,19.65
2018-07-11T12:32:45.327Z,19.53
2018-07-11T12:37:48.657Z,19.63
2018-07-11T12:42:51.985Z,19.85
2018-07-11T12:47:55.314Z,19.78
2018-07-11T12:52:58.679Z,19.95
2018-07-11T12:58:02.786Z,20.11
2018-07-11T13:03:06.131Z,20.11
2018-07-11T13:08:10.292Z,20.10
2018-07-11T13:13:13.755Z,19.96
2018-07-11T13:18:17.079Z,19.94
2018-07-11T13:23:21.210Z,20.41
2018-07-11T13:28:24.566Z,20.57
2018-07-11T13:33:27.895Z,20.72
2018-07-11T13:38:31.225Z,20.41
2018-07-11T13:43:34.563Z,20.39
2018-07-11T13:48:38.675Z,20.70
2018-07-11T13:53:42.003Z,20.74
2018-07-11T13:58:46.091Z,20.93
2018-07-11T14:03:49.443Z,20.62
2018-07-11T14:08:52.789Z,20.56
2018-07-11T14:13:56.119Z,20.33
2018-07-11T14:18:59.447Z,19.94
2018-07-11T14:24:02.770Z,20.05
2018-07-11T14:29:06.103Z,20.53
2018-07-11T14:34:09.447Z,20.33
2018-07-11T14:39:12.774Z,20.42
2018-07-11T14:44:16.143Z,20.40
2018-07-11T14:49:37.334Z,21.37
2018-07-11T14:54:41.152Z,22.40
2018-07-11T14:59:47.026Z,22.47
2018-07-11T15:04:51.679Z,22.20
2018-07-11T15:15:31.967Z,21.08
2018-07-11T15:20:45.427Z,20.68
2018-07-11T15:25:49.772Z,20.63
2018-07-11T15:30:55.420Z,20.96
2018-07-11T15:35:59.680Z,21.75
2018-07-11T15:41:03.235Z,21.67
2018-07-11T15:46:06.611Z,22.02
2018-07-11T15:51:10.121Z,22.10
2018-07-11T15:56:13.488Z,21.64
2018-07-11T16:01:18.382Z,21.09
2018-07-11T16:06:22.666Z,21.17
2018-07-11T16:11:26.232Z,22.14
2018-07-11T16:16:29.885Z,22.34
2018-07-11T16:21:33.504Z,22.67
2018-07-11T16:26:37.294Z,22.80
2018-07-11T16:31:41.370Z,23.00
2018-07-11T16:36:44.889Z,23.30
2018-07-11T16:41:48.289Z,22.63
2018-07-11T16:46:52.184Z,22.28
2018-07-11T16:51:55.874Z,22.70
2018-07-11T16:56:59.399Z,23.42
2018-07-11T17:02:02.936Z,22.59
2018-07-11T17:07:06.559Z,22.49
2018-07-11T17:12:10.177Z,22.57
2018-07-11T17:17:13.797Z,21.93
2018-07-11T17:22:17.416Z,22.24
2018-07-11T17:27:20.864Z,21.91
2018-07-11T17:32:24.840Z,21.96
2018-07-11T17:37:30.020Z,22.30
2018-07-11T17:42:34.349Z,22.41
2018-07-11T17:47:38.037Z,22.33
2018-07-11T17:52:42.316Z,22.47
2018-07-11T17:57:45.886Z,22.87
2018-07-11T18:02:50.101Z,22.55
2018-07-11T18:07:53.621Z,22.19
2018-07-11T18:12:57.123Z,22.18
2018-07-11T18:18:03.004Z,22.06
2018-07-11T18:23:07.302Z,21.89
2018-07-11T18:28:13.383Z,21.93
2018-07-11T18:33:18.956Z,21.74
2018-07-11T18:38:23.946Z,21.60
2018-07-11T18:43:27.665Z,21.45
2018-07-11T18:48:32.073Z,21.03
2018-07-11T18:53:35.957Z,20.99
2018-07-11T18:58:43.316Z,20.67
2018-07-11T19:03:47.125Z,20.86
2018-07-11T19:08:50.680Z,20.89
2018-07-11T19:13:54.252Z,20.73
2018-07-11T19:18:57.839Z,20.91
2018-07-11T19:24:01.371Z,20.65
2018-07-11T19:29:08.223Z,20.49
2018-07-11T19:34:13.064Z,20.33
2018-07-11T19:39:21.868Z,20.39
2018-07-11T19:44:26.810Z,20.25
2018-07-11T19:49:34.345Z,20.23
2018-07-11T19:54:37.755Z,19.98
2018-07-11T19:59:50.123Z,19.87
2018-07-11T20:04:53.647Z,19.65
2018-07-11T20:10:03.819Z,19.65
2018-07-11T20:15:08.299Z,19.62
2018-07-11T20:20:20.329Z,19.59
2018-07-11T20:25:23.988Z,19.51
2018-07-11T20:30:46.700Z,19.47
2018-07-11T20:35:54.525Z,19.37
2018-07-11T20:40:58.401Z,19.31
2018-07-11T20:46:04.326Z,19.22
2018-07-11T20:51:08.234Z,19.10
2018-07-11T20:56:11.874Z,19.05
2018-07-11T21:07:00.892Z,19.03
2018-07-11T21:12:04.659Z,18.99
2018-07-11T21:17:08.371Z,18.93
2018-07-11T21:22:13.541Z,18.85
2018-07-11T21:27:17.380Z,18.81
2018-07-11T21:32:21.743Z,18.69
2018-07-11T21:37:25.242Z,18.56
2018-07-11T21:42:28.872Z,18.52
2018-07-11T21:47:32.468Z,18.51
2018-07-11T21:52:36.660Z,18.39
2018-07-11T21:57:40.069Z,18.23
2018-07-11T22:02:43.420Z,18.14
2018-07-11T22:07:46.739Z,18.00
2018-07-11T22:12:50.851Z,17.89
2018-07-11T22:18:36.810Z,17.88
2018-07-11T22:23:39.348Z,17.83
2018-07-11T22:28:41.893Z,17.78
